sensor_id;sensor_type;location;lat;lon;timestamp;temperature;humidity
12305;DHT22;6215;51.258;9.386;2022-07-23T00:00:36;17.90;99.90
12305;DHT22;6215;51.258;9.386;2022-07-23T00:03:02;17.90;99.90
12305;DHT22;6215;51.258;9.386;2022-07-23T00:05:29;17.90;99.90
12305;DHT22;6215;51.258;9.386;2022-07-23T00:07:55;17.90;99.90
12305;DHT22;6215;51.258;9.386;2022-07-23T00:10:22;17.90;99.90
12305;DHT22;6215;51.258;9.386;2022-07-23T00:12:49;17.80;99.90
12305;DHT22;6215;51.258;9.386;2022-07-23T00:15:17;17.80;99.90
12305;DHT22;6215;51.258;9.386;2022-07-23T00:17:43;17.80;99.90
12305;DHT22;6215;51.258;9.386;2022-07-23T00:20:10;17.70;99.90
12305;DHT22;6215;51.258;9.386;2022-07-23T00:22:45;17.80;99.90
12305;DHT22;6215;51.258;9.386;2022-07-23T00:25:11;17.80;99.90
12305;DHT22;6215;51.258;9.386;2022-07-23T00:27:38;17.70;99.90
12305;DHT22;6215;51.258;9.386;2022-07-23T00:30:05;17.80;99.90
12305;DHT22;6215;51.258;9.386;2022-07-23T00:32:33;17.70;99.90
12305;DHT22;6215;51.258;9.386;2022-07-23T00:35:11;17.70;99.90
12305;DHT22;6215;51.258;9.386;2022-07-23T00:37:37;17.70;99.90
12305;DHT22;6215;51.258;9.386;2022-07-23T00:40:04;17.70;99.90
12305;DHT22;6215;51.258;9.386;2022-07-23T00:42:31;17.80;99.90
12305;DHT22;6215;51.258;9.386;2022-07-23T00:44:58;17.80;99.90
12305;DHT22;6215;51.258;9.386;2022-07-23T00:47:24;17.80;99.90
12305;DHT22;6215;51.258;9.386;2022-07-23T00:49:52;17.90;99.90
12305;DHT22;6215;51.258;9.386;2022-07-23T00:52:19;17.80;99.90
12305;DHT22;6215;51.258;9.386;2022-07-23T00:54:46;17.80;99.90
12305;DHT22;6215;51.258;9.386;2022-07-23T00:57:12;17.70;99.90
12305;DHT22;6215;51.258;9.386;2022-07-23T00:59:39;17.70;99.90
12305;DHT22;6215;51.258;9.386;2022-07-23T01:02:06;17.70;99.90
12305;DHT22;6215;51.258;9.386;2022-07-23T01:04:33;17.50;99.90
12305;DHT22;6215;51.258;9.386;2022-07-23T01:07:01;17.70;99.90
12305;DHT22;6215;51.258;9.386;2022-07-23T01:09:28;17.60;99.90
12305;DHT22;6215;51.258;9.386;2022-07-23T01:11:54;17.80;99.90
12305;DHT22;6215;51.258;9.386;2022-07-23T01:14:21;17.60;99.90
12305;DHT22;6215;51.258;9.386;2022-07-23T01:16:48;17.40;99.90
12305;DHT22;6215;51.258;9.386;2022-07-23T01:19:15;17.40;99.90
12305;DHT22;6215;51.258;9.386;2022-07-23T01:21:43;17.40;99.90
12305;DHT22;6215;51.258;9.386;2022-07-23T01:24:12;17.40;99.90
12305;DHT22;6215;51.258;9.386;2022-07-23T01:26:39;17.40;99.90
12305;DHT22;6215;51.258;9.386;2022-07-23T01:29:05;17.40;99.90
12305;DHT22;6215;51.258;9.386;2022-07-23T01:31:32;17.60;99.90
12305;DHT22;6215;51.258;9.386;2022-07-23T01:33:59;17.50;99.90
12305;DHT22;6215;51.258;9.386;2022-07-23T01:36:25;17.50;99.90
12305;DHT22;6215;51.258;9.386;2022-07-23T01:38:52;17.50;99.90
12305;DHT22;6215;51.258;9.386;2022-07-23T01:41:20;17.60;99.90
12305;DHT22;6215;51.258;9.386;2022-07-23T01:43:47;17.80;99.90
12305;DHT22;6215;51.258;9.386;2022-07-23T01:46:13;17.50;99.90
12305;DHT22;6215;51.258;9.386;2022-07-23T01:48:40;17.50;99.90
12305;DHT22;6215;51.258;9.386;2022-07-23T01:51:07;17.50;99.90
12305;DHT22;6215;51.258;9.386;2022-07-23T01:53:33;17.40;99.90
12305;DHT22;6215;51.258;9.386;2022-07-23T01:56:00;17.20;99.90
12305;DHT22;6215;51.258;9.386;2022-07-23T01:58:28;17.00;99.90
12305;DHT22;6215;51.258;9.386;2022-07-23T02:00:55;16.90;99.90
12305;DHT22;6215;51.258;9.386;2022-07-23T02:03:22;16.90;99.90
12305;DHT22;6215;51.258;9.386;2022-07-23T02:05:49;16.90;99.90
12305;DHT22;6215;51.258;9.386;2022-07-23T02:08:15;16.90;99.90
12305;DHT22;6215;51.258;9.386;2022-07-23T02:10:42;17.00;99.90
12305;DHT22;6215;51.258;9.386;2022-07-23T02:13:09;17.00;99.90
12305;DHT22;6215;51.258;9.386;2022-07-23T02:15:37;17.00;99.90
12305;DHT22;6215;51.258;9.386;2022-07-23T02:18:04;16.90;99.90
12305;DHT22;6215;51.258;9.386;2022-07-23T02:20:30;16.80;99.90
12305;DHT22;6215;51.258;9.386;2022-07-23T02:22:57;16.70;99.90
12305;DHT22;6215;51.258;9.386;2022-07-23T02:25:23;16.60;99.90
12305;DHT22;6215;51.258;9.386;2022-07-23T02:27:50;16.60;99.90
12305;DHT22;6215;51.258;9.386;2022-07-23T02:30:17;16.40;99.90
12305;DHT22;6215;51.258;9.386;2022-07-23T02:32:45;16.50;99.90
12305;DHT22;6215;51.258;9.386;2022-07-23T02:35:11;16.40;99.90
12305;DHT22;6215;51.258;9.386;2022-07-23T02:37:38;16.30;99.90
12305;DHT22;6215;51.258;9.386;2022-07-23T02:40:05;16.30;99.90
12305;DHT22;6215;51.258;9.386;2022-07-23T02:42:31;16.30;99.90
12305;DHT22;6215;51.258;9.386;2022-07-23T02:44:58;16.30;99.90
12305;DHT22;6215;51.258;9.386;2022-07-23T02:47:25;16.30;99.90
12305;DHT22;6215;51.258;9.386;2022-07-23T02:49:53;16.20;99.90
12305;DHT22;6215;51.258;9.386;2022-07-23T02:52:19;16.20;99.90
12305;DHT22;6215;51.258;9.386;2022-07-23T02:54:46;16.30;99.90
12305;DHT22;6215;51.258;9.386;2022-07-23T02:57:13;16.30;99.90
12305;DHT22;6215;51.258;9.386;2022-07-23T02:59:39;16.30;99.90
12305;DHT22;6215;51.258;9.386;2022-07-23T03:02:06;16.40;99.90
12305;DHT22;6215;51.258;9.386;2022-07-23T03:04:33;16.40;99.90
12305;DHT22;6215;51.258;9.386;2022-07-23T03:07:01;16.50;99.90
12305;DHT22;6215;51.258;9.386;2022-07-23T03:09:28;16.50;99.90
12305;DHT22;6215;51.258;9.386;2022-07-23T03:11:54;16.40;99.90
12305;DHT22;6215;51.258;9.386;2022-07-23T03:14:21;16.50;99.90
12305;DHT22;6215;51.258;9.386;2022-07-23T03:16:47;16.60;99.90
12305;DHT22;6215;51.258;9.386;2022-07-23T03:19:15;16.50;99.90
12305;DHT22;6215;51.258;9.386;2022-07-23T03:21:42;16.50;99.90
12305;DHT22;6215;51.258;9.386;2022-07-23T03:24:10;16.50;99.90
12305;DHT22;6215;51.258;9.386;2022-07-23T03:26:36;16.50;99.90
12305;DHT22;6215;51.258;9.386;2022-07-23T03:29:05;16.60;99.90
12305;DHT22;6215;51.258;9.386;2022-07-23T03:31:31;16.70;99.90
12305;DHT22;6215;51.258;9.386;2022-07-23T03:33:58;16.70;99.90
12305;DHT22;6215;51.258;9.386;2022-07-23T03:36:25;16.60;99.90
12305;DHT22;6215;51.258;9.386;2022-07-23T03:38:51;16.60;99.90
12305;DHT22;6215;51.258;9.386;2022-07-23T03:41:19;16.50;99.90
12305;DHT22;6215;51.258;9.386;2022-07-23T03:43:46;16.60;99.90
12305;DHT22;6215;51.258;9.386;2022-07-23T03:46:13;16.60;99.90
12305;DHT22;6215;51.258;9.386;2022-07-23T03:48:39;16.50;99.90
12305;DHT22;6215;51.258;9.386;2022-07-23T03:51:06;16.50;99.90
12305;DHT22;6215;51.258;9.386;2022-07-23T03:53:34;16.50;99.90
12305;DHT22;6215;51.258;9.386;2022-07-23T03:56:01;16.50;99.90
12305;DHT22;6215;51.258;9.386;2022-07-23T03:58:29;16.40;99.90
12305;DHT22;6215;51.258;9.386;2022-07-23T04:00:55;16.30;99.90
12305;DHT22;6215;51.258;9.386;2022-07-23T04:03:22;16.30;99.90
12305;DHT22;6215;51.258;9.386;2022-07-23T04:05:48;16.40;99.90
12305;DHT22;6215;51.258;9.386;2022-07-23T04:08:15;16.40;99.90
12305;DHT22;6215;51.258;9.386;2022-07-23T04:10:42;16.40;99.90
12305;DHT22;6215;51.258;9.386;2022-07-23T04:13:09;16.50;99.90
12305;DHT22;6215;51.258;9.386;2022-07-23T04:15:37;16.40;99.90
12305;DHT22;6215;51.258;9.386;2022-07-23T04:18:04;16.40;99.90
12305;DHT22;6215;51.258;9.386;2022-07-23T04:20:30;16.30;99.90
12305;DHT22;6215;51.258;9.386;2022-07-23T04:22:57;16.30;99.90
12305;DHT22;6215;51.258;9.386;2022-07-23T04:25:23;16.30;99.90
12305;DHT22;6215;51.258;9.386;2022-07-23T04:27:50;16.20;99.90
12305;DHT22;6215;51.258;9.386;2022-07-23T04:30:17;16.20;99.90
12305;DHT22;6215;51.258;9.386;2022-07-23T04:32:45;16.20;99.90
12305;DHT22;6215;51.258;9.386;2022-07-23T04:35:11;16.10;99.90
12305;DHT22;6215;51.258;9.386;2022-07-23T04:37:38;16.10;99.90
12305;DHT22;6215;51.258;9.386;2022-07-23T04:40:05;16.10;99.90
12305;DHT22;6215;51.258;9.386;2022-07-23T04:42:32;16.10;99.90
12305;DHT22;6215;51.258;9.386;2022-07-23T04:44:58;16.10;99.90
12305;DHT22;6215;51.258;9.386;2022-07-23T04:47:25;16.10;99.90
12305;DHT22;6215;51.258;9.386;2022-07-23T04:49:53;16.10;99.90
12305;DHT22;6215;51.258;9.386;2022-07-23T04:52:20;16.20;99.90
12305;DHT22;6215;51.258;9.386;2022-07-23T04:54:46;16.30;99.90
12305;DHT22;6215;51.258;9.386;2022-07-23T04:57:13;16.30;99.90
12305;DHT22;6215;51.258;9.386;2022-07-23T04:59:40;16.40;99.90
12305;DHT22;6215;51.258;9.386;2022-07-23T05:02:06;16.50;99.90
12305;DHT22;6215;51.258;9.386;2022-07-23T05:04:33;16.50;99.90
12305;DHT22;6215;51.258;9.386;2022-07-23T05:07:01;16.60;99.90
12305;DHT22;6215;51.258;9.386;2022-07-23T05:09:27;16.40;99.90
12305;DHT22;6215;51.258;9.386;2022-07-23T05:11:54;16.60;99.90
12305;DHT22;6215;51.258;9.386;2022-07-23T05:14:21;16.60;99.90
12305;DHT22;6215;51.258;9.386;2022-07-23T05:16:48;16.70;99.90
12305;DHT22;6215;51.258;9.386;2022-07-23T05:19:14;16.60;99.90
12305;DHT22;6215;51.258;9.386;2022-07-23T05:21:41;16.70;99.90
12305;DHT22;6215;51.258;9.386;2022-07-23T05:24:09;17.20;99.90
12305;DHT22;6215;51.258;9.386;2022-07-23T05:26:36;17.30;99.90
12305;DHT22;6215;51.258;9.386;2022-07-23T05:29:03;17.50;99.90
12305;DHT22;6215;51.258;9.386;2022-07-23T05:31:29;17.60;99.90
12305;DHT22;6215;51.258;9.386;2022-07-23T05:33:56;17.60;99.90
12305;DHT22;6215;51.258;9.386;2022-07-23T05:36:23;17.60;99.90
12305;DHT22;6215;51.258;9.386;2022-07-23T05:38:49;17.50;99.90
12305;DHT22;6215;51.258;9.386;2022-07-23T05:41:17;17.60;99.90
12305;DHT22;6215;51.258;9.386;2022-07-23T05:43:44;17.60;99.90
12305;DHT22;6215;51.258;9.386;2022-07-23T05:46:10;17.60;99.90
12305;DHT22;6215;51.258;9.386;2022-07-23T05:48:37;17.70;99.90
12305;DHT22;6215;51.258;9.386;2022-07-23T05:51:04;17.50;99.90
12305;DHT22;6215;51.258;9.386;2022-07-23T05:53:32;17.50;99.90
12305;DHT22;6215;51.258;9.386;2022-07-23T05:55:58;17.70;99.90
12305;DHT22;6215;51.258;9.386;2022-07-23T05:58:26;18.30;99.90
12305;DHT22;6215;51.258;9.386;2022-07-23T06:00:53;19.00;99.90
12305;DHT22;6215;51.258;9.386;2022-07-23T06:03:20;19.70;99.90
12305;DHT22;6215;51.258;9.386;2022-07-23T06:05:46;19.90;99.90
12305;DHT22;6215;51.258;9.386;2022-07-23T06:08:13;20.50;99.90
12305;DHT22;6215;51.258;9.386;2022-07-23T06:10:39;21.00;99.90
12305;DHT22;6215;51.258;9.386;2022-07-23T06:13:06;21.60;99.90
12305;DHT22;6215;51.258;9.386;2022-07-23T06:15:34;22.00;99.90
12305;DHT22;6215;51.258;9.386;2022-07-23T06:18:01;22.30;99.90
12305;DHT22;6215;51.258;9.386;2022-07-23T06:20:28;22.30;99.90
12305;DHT22;6215;51.258;9.386;2022-07-23T06:22:54;22.10;99.90
12305;DHT22;6215;51.258;9.386;2022-07-23T06:25:21;21.90;99.90
12305;DHT22;6215;51.258;9.386;2022-07-23T06:27:48;21.70;99.90
12305;DHT22;6215;51.258;9.386;2022-07-23T06:30:15;21.90;99.90
12305;DHT22;6215;51.258;9.386;2022-07-23T06:32:44;21.50;99.90
12305;DHT22;6215;51.258;9.386;2022-07-23T06:35:10;21.40;99.90
12305;DHT22;6215;51.258;9.386;2022-07-23T06:37:37;21.50;99.90
12305;DHT22;6215;51.258;9.386;2022-07-23T06:40:04;21.30;99.90
12305;DHT22;6215;51.258;9.386;2022-07-23T06:42:31;21.10;99.90
12305;DHT22;6215;51.258;9.386;2022-07-23T06:44:57;21.00;99.90
12305;DHT22;6215;51.258;9.386;2022-07-23T06:47:25;20.90;99.90
12305;DHT22;6215;51.258;9.386;2022-07-23T06:49:53;20.80;99.90
12305;DHT22;6215;51.258;9.386;2022-07-23T06:52:19;20.80;99.90
12305;DHT22;6215;51.258;9.386;2022-07-23T06:54:46;20.90;99.90
12305;DHT22;6215;51.258;9.386;2022-07-23T06:57:13;21.20;99.90
12305;DHT22;6215;51.258;9.386;2022-07-23T06:59:39;21.60;99.90
12305;DHT22;6215;51.258;9.386;2022-07-23T07:02:06;21.60;99.90
12305;DHT22;6215;51.258;9.386;2022-07-23T07:04:33;21.80;99.90
12305;DHT22;6215;51.258;9.386;2022-07-23T07:07:01;21.90;99.90
12305;DHT22;6215;51.258;9.386;2022-07-23T07:09:28;21.90;99.90
12305;DHT22;6215;51.258;9.386;2022-07-23T07:11:55;21.60;99.90
12305;DHT22;6215;51.258;9.386;2022-07-23T07:14:21;21.40;99.90
12305;DHT22;6215;51.258;9.386;2022-07-23T07:16:48;21.80;99.90
12305;DHT22;6215;51.258;9.386;2022-07-23T07:19:15;21.90;99.90
12305;DHT22;6215;51.258;9.386;2022-07-23T07:21:41;22.20;99.90
12305;DHT22;6215;51.258;9.386;2022-07-23T07:24:09;22.40;99.90
12305;DHT22;6215;51.258;9.386;2022-07-23T07:26:36;22.50;99.90
12305;DHT22;6215;51.258;9.386;2022-07-23T07:29:04;22.40;99.90
12305;DHT22;6215;51.258;9.386;2022-07-23T07:31:30;22.30;99.90
12305;DHT22;6215;51.258;9.386;2022-07-23T07:33:57;22.30;99.90
12305;DHT22;6215;51.258;9.386;2022-07-23T07:36:24;22.70;99.90
12305;DHT22;6215;51.258;9.386;2022-07-23T07:38:51;22.60;99.90
12305;DHT22;6215;51.258;9.386;2022-07-23T07:41:19;22.40;99.90
12305;DHT22;6215;51.258;9.386;2022-07-23T07:43:49;22.30;99.90
12305;DHT22;6215;51.258;9.386;2022-07-23T07:46:15;21.90;99.90
12305;DHT22;6215;51.258;9.386;2022-07-23T07:48:42;22.00;99.90
12305;DHT22;6215;51.258;9.386;2022-07-23T07:51:09;22.10;99.90
12305;DHT22;6215;51.258;9.386;2022-07-23T07:53:35;21.90;99.90
12305;DHT22;6215;51.258;9.386;2022-07-23T07:56:02;21.80;99.90
12305;DHT22;6215;51.258;9.386;2022-07-23T07:58:30;21.90;99.90
12305;DHT22;6215;51.258;9.386;2022-07-23T08:00:56;21.90;99.90
12305;DHT22;6215;51.258;9.386;2022-07-23T08:03:23;22.00;99.90
12305;DHT22;6215;51.258;9.386;2022-07-23T08:05:50;22.10;99.90
12305;DHT22;6215;51.258;9.386;2022-07-23T08:08:16;22.20;99.90
12305;DHT22;6215;51.258;9.386;2022-07-23T08:10:43;22.50;99.90
12305;DHT22;6215;51.258;9.386;2022-07-23T08:13:12;22.70;99.90
12305;DHT22;6215;51.258;9.386;2022-07-23T08:15:40;23.00;99.90
12305;DHT22;6215;51.258;9.386;2022-07-23T08:18:08;23.00;99.90
12305;DHT22;6215;51.258;9.386;2022-07-23T08:20:35;23.10;99.90
12305;DHT22;6215;51.258;9.386;2022-07-23T08:23:02;23.40;99.90
12305;DHT22;6215;51.258;9.386;2022-07-23T08:25:30;23.60;99.90
12305;DHT22;6215;51.258;9.386;2022-07-23T08:27:57;23.40;99.90
12305;DHT22;6215;51.258;9.386;2022-07-23T08:30:24;23.20;99.90
12305;DHT22;6215;51.258;9.386;2022-07-23T08:32:53;23.20;99.90
12305;DHT22;6215;51.258;9.386;2022-07-23T08:35:23;23.70;99.90
12305;DHT22;6215;51.258;9.386;2022-07-23T08:37:50;24.10;99.90
12305;DHT22;6215;51.258;9.386;2022-07-23T08:40:17;24.20;99.90
12305;DHT22;6215;51.258;9.386;2022-07-23T08:42:44;24.10;99.90
12305;DHT22;6215;51.258;9.386;2022-07-23T08:45:13;24.10;99.90
12305;DHT22;6215;51.258;9.386;2022-07-23T08:47:42;23.80;99.90
12305;DHT22;6215;51.258;9.386;2022-07-23T08:50:11;23.80;99.90
12305;DHT22;6215;51.258;9.386;2022-07-23T08:52:37;23.80;99.90
12305;DHT22;6215;51.258;9.386;2022-07-23T08:55:05;23.40;99.90
12305;DHT22;6215;51.258;9.386;2022-07-23T08:57:32;23.30;99.90
12305;DHT22;6215;51.258;9.386;2022-07-23T08:59:59;23.50;99.90
12305;DHT22;6215;51.258;9.386;2022-07-23T09:02:25;23.80;99.90
12305;DHT22;6215;51.258;9.386;2022-07-23T09:04:52;24.30;99.90
12305;DHT22;6215;51.258;9.386;2022-07-23T09:07:20;24.60;99.90
12305;DHT22;6215;51.258;9.386;2022-07-23T09:09:46;24.90;99.90
12305;DHT22;6215;51.258;9.386;2022-07-23T09:12:13;25.40;99.90
12305;DHT22;6215;51.258;9.386;2022-07-23T09:14:42;25.30;99.90
12305;DHT22;6215;51.258;9.386;2022-07-23T09:17:09;25.20;99.90
12305;DHT22;6215;51.258;9.386;2022-07-23T09:19:36;25.60;99.90
12305;DHT22;6215;51.258;9.386;2022-07-23T09:22:16;25.80;99.90
12305;DHT22;6215;51.258;9.386;2022-07-23T09:27:25;25.60;99.90
12305;DHT22;6215;51.258;9.386;2022-07-23T09:30:10;25.00;99.90
12305;DHT22;6215;51.258;9.386;2022-07-23T09:32:37;25.00;99.90
12305;DHT22;6215;51.258;9.386;2022-07-23T09:35:05;25.30;99.90
12305;DHT22;6215;51.258;9.386;2022-07-23T09:37:31;25.60;99.90
12305;DHT22;6215;51.258;9.386;2022-07-23T09:40:03;25.60;99.90
12305;DHT22;6215;51.258;9.386;2022-07-23T09:42:31;25.60;99.90
12305;DHT22;6215;51.258;9.386;2022-07-23T09:44:58;26.10;99.90
12305;DHT22;6215;51.258;9.386;2022-07-23T09:47:25;26.60;99.90
12305;DHT22;6215;51.258;9.386;2022-07-23T09:49:59;26.50;99.90
12305;DHT22;6215;51.258;9.386;2022-07-23T09:52:26;26.40;99.90
12305;DHT22;6215;51.258;9.386;2022-07-23T09:54:57;26.40;99.90
12305;DHT22;6215;51.258;9.386;2022-07-23T09:57:24;26.30;99.90
12305;DHT22;6215;51.258;9.386;2022-07-23T09:59:53;26.20;99.90
12305;DHT22;6215;51.258;9.386;2022-07-23T10:02:23;26.40;99.90
12305;DHT22;6215;51.258;9.386;2022-07-23T10:04:50;26.40;99.90
12305;DHT22;6215;51.258;9.386;2022-07-23T10:07:19;26.50;99.90
12305;DHT22;6215;51.258;9.386;2022-07-23T10:09:47;26.80;99.90
12305;DHT22;6215;51.258;9.386;2022-07-23T10:12:15;27.00;99.90
12305;DHT22;6215;51.258;9.386;2022-07-23T10:14:49;26.90;99.90
12305;DHT22;6215;51.258;9.386;2022-07-23T10:17:17;26.90;99.90
12305;DHT22;6215;51.258;9.386;2022-07-23T10:19:44;27.20;99.90
12305;DHT22;6215;51.258;9.386;2022-07-23T10:22:11;27.50;99.90
12305;DHT22;6215;51.258;9.386;2022-07-23T10:24:42;27.90;99.90
12305;DHT22;6215;51.258;9.386;2022-07-23T10:27:18;27.70;99.90
12305;DHT22;6215;51.258;9.386;2022-07-23T10:29:50;27.50;99.90
12305;DHT22;6215;51.258;9.386;2022-07-23T10:32:25;27.80;99.90
12305;DHT22;6215;51.258;9.386;2022-07-23T10:34:55;27.90;99.90
12305;DHT22;6215;51.258;9.386;2022-07-23T10:37:27;28.00;99.90
12305;DHT22;6215;51.258;9.386;2022-07-23T10:40:10;28.50;98.70
12305;DHT22;6215;51.258;9.386;2022-07-23T10:42:37;28.70;99.50
12305;DHT22;6215;51.258;9.386;2022-07-23T10:47:47;29.00;97.80
12305;DHT22;6215;51.258;9.386;2022-07-23T10:50:16;28.90;97.60
12305;DHT22;6215;51.258;9.386;2022-07-23T10:52:46;28.20;96.50
12305;DHT22;6215;51.258;9.386;2022-07-23T10:55:40;27.80;98.10
12305;DHT22;6215;51.258;9.386;2022-07-23T10:58:07;27.90;97.60
12305;DHT22;6215;51.258;9.386;2022-07-23T11:00:34;28.20;97.70
12305;DHT22;6215;51.258;9.386;2022-07-23T11:03:03;28.20;98.80
12305;DHT22;6215;51.258;9.386;2022-07-23T11:05:41;28.60;98.00
12305;DHT22;6215;51.258;9.386;2022-07-23T11:08:12;28.40;96.80
12305;DHT22;6215;51.258;9.386;2022-07-23T11:10:40;27.90;97.10
12305;DHT22;6215;51.258;9.386;2022-07-23T11:16:06;28.00;97.00
12305;DHT22;6215;51.258;9.386;2022-07-23T11:21:45;28.10;96.70
12305;DHT22;6215;51.258;9.386;2022-07-23T11:24:12;28.30;97.00
12305;DHT22;6215;51.258;9.386;2022-07-23T11:26:43;28.20;97.00
12305;DHT22;6215;51.258;9.386;2022-07-23T11:32:07;28.50;95.60
12305;DHT22;6215;51.258;9.386;2022-07-23T11:34:35;28.60;96.00
12305;DHT22;6215;51.258;9.386;2022-07-23T11:37:04;28.80;96.00
12305;DHT22;6215;51.258;9.386;2022-07-23T11:39:32;28.90;95.30
12305;DHT22;6215;51.258;9.386;2022-07-23T11:41:59;28.90;94.40
12305;DHT22;6215;51.258;9.386;2022-07-23T11:44:27;28.90;96.20
12305;DHT22;6215;51.258;9.386;2022-07-23T11:46:54;28.60;95.50
12305;DHT22;6215;51.258;9.386;2022-07-23T11:49:21;28.40;95.90
12305;DHT22;6215;51.258;9.386;2022-07-23T11:52:02;28.40;96.30
12305;DHT22;6215;51.258;9.386;2022-07-23T11:54:30;28.70;95.70
12305;DHT22;6215;51.258;9.386;2022-07-23T11:56:57;29.10;94.70
12305;DHT22;6215;51.258;9.386;2022-07-23T11:59:23;29.00;93.90
12305;DHT22;6215;51.258;9.386;2022-07-23T12:02:00;28.40;94.80
12305;DHT22;6215;51.258;9.386;2022-07-23T12:04:36;28.10;95.50
12305;DHT22;6215;51.258;9.386;2022-07-23T12:07:04;27.90;95.50
12305;DHT22;6215;51.258;9.386;2022-07-23T12:09:31;27.80;95.10
12305;DHT22;6215;51.258;9.386;2022-07-23T12:11:58;27.70;95.50
12305;DHT22;6215;51.258;9.386;2022-07-23T12:14:25;27.80;96.20
12305;DHT22;6215;51.258;9.386;2022-07-23T12:17:07;27.80;95.40
12305;DHT22;6215;51.258;9.386;2022-07-23T12:19:34;27.80;96.30
12305;DHT22;6215;51.258;9.386;2022-07-23T12:22:01;27.70;97.00
12305;DHT22;6215;51.258;9.386;2022-07-23T12:24:29;28.00;96.50
12305;DHT22;6215;51.258;9.386;2022-07-23T12:29:43;28.20;94.70
12305;DHT22;6215;51.258;9.386;2022-07-23T12:32:19;28.10;94.40
12305;DHT22;6215;51.258;9.386;2022-07-23T12:34:47;28.00;95.00
12305;DHT22;6215;51.258;9.386;2022-07-23T12:37:27;27.70;95.40
12305;DHT22;6215;51.258;9.386;2022-07-23T12:39:55;27.50;94.90
12305;DHT22;6215;51.258;9.386;2022-07-23T12:42:22;27.30;95.00
12305;DHT22;6215;51.258;9.386;2022-07-23T12:45:08;27.30;95.40
12305;DHT22;6215;51.258;9.386;2022-07-23T12:47:56;27.00;96.00
12305;DHT22;6215;51.258;9.386;2022-07-23T12:50:33;27.00;97.80
12305;DHT22;6215;51.258;9.386;2022-07-23T12:53:07;27.30;97.40
12305;DHT22;6215;51.258;9.386;2022-07-23T12:55:36;27.30;95.70
12305;DHT22;6215;51.258;9.386;2022-07-23T12:58:04;26.90;95.70
12305;DHT22;6215;51.258;9.386;2022-07-23T13:03:23;27.10;96.30
12305;DHT22;6215;51.258;9.386;2022-07-23T13:05:50;27.30;96.60
12305;DHT22;6215;51.258;9.386;2022-07-23T13:08:17;27.50;97.00
12305;DHT22;6215;51.258;9.386;2022-07-23T13:10:45;27.80;96.40
12305;DHT22;6215;51.258;9.386;2022-07-23T13:13:13;27.70;96.10
12305;DHT22;6215;51.258;9.386;2022-07-23T13:15:40;27.50;95.60
12305;DHT22;6215;51.258;9.386;2022-07-23T13:18:06;27.30;96.80
12305;DHT22;6215;51.258;9.386;2022-07-23T13:20:33;27.10;97.00
12305;DHT22;6215;51.258;9.386;2022-07-23T13:23:00;27.00;96.60
12305;DHT22;6215;51.258;9.386;2022-07-23T13:25:27;27.00;96.80
12305;DHT22;6215;51.258;9.386;2022-07-23T13:27:55;27.00;97.30
12305;DHT22;6215;51.258;9.386;2022-07-23T13:30:22;27.00;97.20
12305;DHT22;6215;51.258;9.386;2022-07-23T13:32:49;27.20;97.40
12305;DHT22;6215;51.258;9.386;2022-07-23T13:35:16;27.40;96.50
12305;DHT22;6215;51.258;9.386;2022-07-23T13:37:42;27.50;96.90
12305;DHT22;6215;51.258;9.386;2022-07-23T13:40:09;27.60;97.00
12305;DHT22;6215;51.258;9.386;2022-07-23T13:42:36;27.50;96.10
12305;DHT22;6215;51.258;9.386;2022-07-23T13:45:05;27.40;96.40
12305;DHT22;6215;51.258;9.386;2022-07-23T13:47:32;27.30;96.30
12305;DHT22;6215;51.258;9.386;2022-07-23T13:50:01;27.20;97.00
12305;DHT22;6215;51.258;9.386;2022-07-23T13:52:29;27.30;97.30
12305;DHT22;6215;51.258;9.386;2022-07-23T13:55:06;27.20;97.20
12305;DHT22;6215;51.258;9.386;2022-07-23T13:57:33;27.10;97.60
12305;DHT22;6215;51.258;9.386;2022-07-23T14:00:00;27.20;97.80
12305;DHT22;6215;51.258;9.386;2022-07-23T14:02:29;27.40;97.70
12305;DHT22;6215;51.258;9.386;2022-07-23T14:04:55;27.30;96.60
12305;DHT22;6215;51.258;9.386;2022-07-23T14:07:23;27.40;97.10
12305;DHT22;6215;51.258;9.386;2022-07-23T14:09:55;27.40;96.50
12305;DHT22;6215;51.258;9.386;2022-07-23T14:12:22;27.20;95.90
12305;DHT22;6215;51.258;9.386;2022-07-23T14:14:48;26.90;96.10
12305;DHT22;6215;51.258;9.386;2022-07-23T14:17:15;26.90;96.50
12305;DHT22;6215;51.258;9.386;2022-07-23T14:19:43;27.10;96.50
12305;DHT22;6215;51.258;9.386;2022-07-23T14:22:10;27.10;96.00
12305;DHT22;6215;51.258;9.386;2022-07-23T14:24:37;27.20;96.50
12305;DHT22;6215;51.258;9.386;2022-07-23T14:27:04;27.00;95.80
12305;DHT22;6215;51.258;9.386;2022-07-23T14:29:31;26.90;96.60
12305;DHT22;6215;51.258;9.386;2022-07-23T14:31:58;26.90;96.20
12305;DHT22;6215;51.258;9.386;2022-07-23T14:34:25;27.10;96.60
12305;DHT22;6215;51.258;9.386;2022-07-23T14:36:53;27.00;96.20
12305;DHT22;6215;51.258;9.386;2022-07-23T14:39:20;26.90;95.80
12305;DHT22;6215;51.258;9.386;2022-07-23T14:41:47;27.00;95.80
12305;DHT22;6215;51.258;9.386;2022-07-23T14:44:13;26.90;95.10
12305;DHT22;6215;51.258;9.386;2022-07-23T14:46:40;26.80;96.50
12305;DHT22;6215;51.258;9.386;2022-07-23T14:49:07;26.90;96.20
12305;DHT22;6215;51.258;9.386;2022-07-23T14:51:33;27.00;96.40
12305;DHT22;6215;51.258;9.386;2022-07-23T14:54:03;27.20;96.00
12305;DHT22;6215;51.258;9.386;2022-07-23T14:56:30;27.10;95.80
12305;DHT22;6215;51.258;9.386;2022-07-23T14:58:58;26.90;95.90
12305;DHT22;6215;51.258;9.386;2022-07-23T15:01:25;26.90;95.80
12305;DHT22;6215;51.258;9.386;2022-07-23T15:03:52;26.80;95.40
12305;DHT22;6215;51.258;9.386;2022-07-23T15:06:18;26.70;96.60
12305;DHT22;6215;51.258;9.386;2022-07-23T15:08:45;26.80;95.90
12305;DHT22;6215;51.258;9.386;2022-07-23T15:11:13;27.00;95.50
12305;DHT22;6215;51.258;9.386;2022-07-23T15:13:40;27.00;95.00
12305;DHT22;6215;51.258;9.386;2022-07-23T15:16:07;26.80;94.90
12305;DHT22;6215;51.258;9.386;2022-07-23T15:18:34;26.80;95.10
12305;DHT22;6215;51.258;9.386;2022-07-23T15:21:01;26.80;94.90
12305;DHT22;6215;51.258;9.386;2022-07-23T15:23:28;26.60;95.40
12305;DHT22;6215;51.258;9.386;2022-07-23T15:25:55;26.40;95.30
12305;DHT22;6215;51.258;9.386;2022-07-23T15:28:23;26.50;95.70
12305;DHT22;6215;51.258;9.386;2022-07-23T15:30:50;26.70;95.20
12305;DHT22;6215;51.258;9.386;2022-07-23T15:33:17;26.60;94.90
12305;DHT22;6215;51.258;9.386;2022-07-23T15:35:44;26.60;95.00
12305;DHT22;6215;51.258;9.386;2022-07-23T15:38:11;26.50;95.00
12305;DHT22;6215;51.258;9.386;2022-07-23T15:40:37;26.40;94.40
12305;DHT22;6215;51.258;9.386;2022-07-23T15:43:04;26.50;95.10
12305;DHT22;6215;51.258;9.386;2022-07-23T15:45:32;26.50;95.20
12305;DHT22;6215;51.258;9.386;2022-07-23T15:47:59;26.70;95.50
12305;DHT22;6215;51.258;9.386;2022-07-23T15:50:26;26.70;95.60
12305;DHT22;6215;51.258;9.386;2022-07-23T15:52:52;26.70;95.70
12305;DHT22;6215;51.258;9.386;2022-07-23T15:55:19;26.70;95.50
12305;DHT22;6215;51.258;9.386;2022-07-23T15:57:46;26.70;95.90
12305;DHT22;6215;51.258;9.386;2022-07-23T16:00:12;26.60;95.80
12305;DHT22;6215;51.258;9.386;2022-07-23T16:02:42;26.30;96.40
12305;DHT22;6215;51.258;9.386;2022-07-23T16:05:08;26.30;96.90
12305;DHT22;6215;51.258;9.386;2022-07-23T16:07:35;26.40;96.80